sensor_id;sensor_type;location;lat;lon;timestamp;pressure;altitude;pressure_sealevel;temperature;humidity
77120;BME280;66073;47.730;9.352;2023-05-29T00:01:12;96578.91;;;16.78;37.87
77120;BME280;66073;47.730;9.352;2023-05-29T00:03:38;96580.34;;;16.84;38.77
77120;BME280;66073;47.730;9.352;2023-05-29T00:06:04;96583.22;;;16.79;38.21
77120;BME280;66073;47.730;9.352;2023-05-29T00:08:31;96581.13;;;16.68;39.06
77120;BME280;66073;47.730;9.352;2023-05-29T00:10:57;96581.75;;;16.73;39.34
77120;BME280;66073;47.730;9.352;2023-05-29T00:13:23;96581.28;;;16.71;39.16
77120;BME280;66073;47.730;9.352;2023-05-29T00:15:48;96577.31;;;16.69;38.06
77120;BME280;66073;47.730;9.352;2023-05-29T00:18:14;96584.66;;;16.94;37.97
77120;BME280;66073;47.730;9.352;2023-05-29T00:20:39;96578.28;;;16.81;38.00
77120;BME280;66073;47.730;9.352;2023-05-29T00:23:05;96581.13;;;16.85;38.05
77120;BME280;66073;47.730;9.352;2023-05-29T00:25:32;96572.25;;;16.67;38.91
77120;BME280;66073;47.730;9.352;2023-05-29T00:27:58;96574.31;;;16.62;38.60
77120;BME280;66073;47.730;9.352;2023-05-29T00:30:23;96576.06;;;16.75;38.16
77120;BME280;66073;47.730;9.352;2023-05-29T00:32:49;96575.44;;;16.87;37.92
77120;BME280;66073;47.730;9.352;2023-05-29T00:35:15;96571.28;;;16.07;42.85
77120;BME280;66073;47.730;9.352;2023-05-29T00:37:40;96576.09;;;15.34;45.19
77120;BME280;66073;47.730;9.352;2023-05-29T00:40:06;96578.84;;;14.99;46.88
77120;BME280;66073;47.730;9.352;2023-05-29T00:42:32;96580.94;;;15.02;46.85
77120;BME280;66073;47.730;9.352;2023-05-29T00:44:57;96570.91;;;15.16;43.88
77120;BME280;66073;47.730;9.352;2023-05-29T00:47:24;96577.31;;;15.28;44.81
77120;BME280;66073;47.730;9.352;2023-05-29T00:49:50;96581.66;;;15.38;42.79
77120;BME280;66073;47.730;9.352;2023-05-29T00:52:18;96579.78;;;15.61;41.98
77120;BME280;66073;47.730;9.352;2023-05-29T00:54:45;96585.22;;;15.47;43.66
77120;BME280;66073;47.730;9.352;2023-05-29T00:57:13;96585.34;;;15.64;42.32
77120;BME280;66073;47.730;9.352;2023-05-29T00:59:40;96584.97;;;15.88;40.83
77120;BME280;66073;47.730;9.352;2023-05-29T01:02:06;96590.19;;;15.84;42.01
77120;BME280;66073;47.730;9.352;2023-05-29T01:04:33;96591.13;;;15.80;41.28
77120;BME280;66073;47.730;9.352;2023-05-29T01:07:02;96586.75;;;15.62;43.25
77120;BME280;66073;47.730;9.352;2023-05-29T01:09:29;96585.59;;;15.54;41.73
77120;BME280;66073;47.730;9.352;2023-05-29T01:20:08;96594.19;;;14.98;44.80
77120;BME280;66073;47.730;9.352;2023-05-29T01:28:42;96602.25;;;13.94;49.83
77120;BME280;66073;47.730;9.352;2023-05-29T01:31:10;96603.91;;;13.76;50.24
77120;BME280;66073;47.730;9.352;2023-05-29T01:33:41;96608.59;;;13.52;50.99
77120;BME280;66073;47.730;9.352;2023-05-29T01:36:08;96606.25;;;13.51;51.61
77120;BME280;66073;47.730;9.352;2023-05-29T01:38:34;96607.22;;;13.41;52.09
77120;BME280;66073;47.730;9.352;2023-05-29T01:41:01;96605.69;;;13.35;52.18
77120;BME280;66073;47.730;9.352;2023-05-29T01:43:27;96607.91;;;13.14;53.06
77120;BME280;66073;47.730;9.352;2023-05-29T01:45:53;96608.25;;;13.08;53.30
77120;BME280;66073;47.730;9.352;2023-05-29T01:48:19;96605.72;;;12.98;53.91
77120;BME280;66073;47.730;9.352;2023-05-29T01:50:45;96608.75;;;13.10;54.08
77120;BME280;66073;47.730;9.352;2023-05-29T01:53:12;96604.56;;;12.85;54.20
77120;BME280;66073;47.730;9.352;2023-05-29T01:55:38;96605.03;;;13.06;53.71
77120;BME280;66073;47.730;9.352;2023-05-29T01:58:05;96610.22;;;12.83;54.76
77120;BME280;66073;47.730;9.352;2023-05-29T02:00:32;96599.56;;;12.78;54.97
77120;BME280;66073;47.730;9.352;2023-05-29T02:02:59;96599.78;;;13.01;52.07
77120;BME280;66073;47.730;9.352;2023-05-29T02:05:25;96609.47;;;12.97;53.82
77120;BME280;66073;47.730;9.352;2023-05-29T02:07:51;96610.81;;;12.80;54.36
77120;BME280;66073;47.730;9.352;2023-05-29T02:10:16;96606.56;;;12.74;54.35
77120;BME280;66073;47.730;9.352;2023-05-29T02:12:42;96605.44;;;12.38;55.40
77120;BME280;66073;47.730;9.352;2023-05-29T02:15:08;96614.31;;;12.57;55.08
77120;BME280;66073;47.730;9.352;2023-05-29T02:17:33;96601.38;;;12.64;54.67
77120;BME280;66073;47.730;9.352;2023-05-29T02:19:59;96608.13;;;12.80;54.11
77120;BME280;66073;47.730;9.352;2023-05-29T02:22:25;96607.66;;;12.92;52.72
77120;BME280;66073;47.730;9.352;2023-05-29T02:24:50;96608.25;;;13.08;51.82
77120;BME280;66073;47.730;9.352;2023-05-29T02:27:15;96610.38;;;13.11;51.82
77120;BME280;66073;47.730;9.352;2023-05-29T02:29:41;96615.28;;;13.22;51.39
77120;BME280;66073;47.730;9.352;2023-05-29T02:32:06;96610.56;;;13.33;51.02
77120;BME280;66073;47.730;9.352;2023-05-29T02:34:32;96615.75;;;13.43;50.15
77120;BME280;66073;47.730;9.352;2023-05-29T02:36:57;96606.94;;;13.56;49.46
77120;BME280;66073;47.730;9.352;2023-05-29T02:39:23;96607.22;;;13.87;48.04
77120;BME280;66073;47.730;9.352;2023-05-29T02:41:49;96600.94;;;13.91;47.56
77120;BME280;66073;47.730;9.352;2023-05-29T02:44:14;96600.44;;;13.89;47.66
77120;BME280;66073;47.730;9.352;2023-05-29T02:46:40;96596.69;;;14.04;47.27
77120;BME280;66073;47.730;9.352;2023-05-29T02:49:05;96603.25;;;14.25;46.44
77120;BME280;66073;47.730;9.352;2023-05-29T02:51:31;96600.09;;;14.37;45.70
77120;BME280;66073;47.730;9.352;2023-05-29T02:53:57;96597.84;;;13.84;48.49
77120;BME280;66073;47.730;9.352;2023-05-29T02:56:23;96591.06;;;13.60;49.83
77120;BME280;66073;47.730;9.352;2023-05-29T02:58:50;96601.50;;;13.61;49.89
77120;BME280;66073;47.730;9.352;2023-05-29T03:01:16;96601.78;;;13.60;50.09
77120;BME280;66073;47.730;9.352;2023-05-29T03:03:42;96595.88;;;13.76;49.56
77120;BME280;66073;47.730;9.352;2023-05-29T03:06:07;96598.13;;;13.69;49.79
77120;BME280;66073;47.730;9.352;2023-05-29T03:08:34;96601.75;;;13.46;51.06
77120;BME280;66073;47.730;9.352;2023-05-29T03:11:00;96604.25;;;13.56;51.04
77120;BME280;66073;47.730;9.352;2023-05-29T03:13:25;96612.25;;;13.43;51.21
77120;BME280;66073;47.730;9.352;2023-05-29T03:15:50;96605.78;;;13.30;51.46
77120;BME280;66073;47.730;9.352;2023-05-29T03:18:16;96603.69;;;13.27;51.84
77120;BME280;66073;47.730;9.352;2023-05-29T03:20:41;96604.28;;;13.05;53.42
77120;BME280;66073;47.730;9.352;2023-05-29T03:23:07;96599.13;;;12.71;54.66
77120;BME280;66073;47.730;9.352;2023-05-29T03:25:32;96594.00;;;12.93;53.72
77120;BME280;66073;47.730;9.352;2023-05-29T03:27:58;96601.16;;;12.98;52.78
77120;BME280;66073;47.730;9.352;2023-05-29T03:30:23;96599.19;;;12.85;53.66
77120;BME280;66073;47.730;9.352;2023-05-29T03:32:49;96600.84;;;12.81;54.94
77120;BME280;66073;47.730;9.352;2023-05-29T03:35:14;96604.63;;;12.61;55.25
77120;BME280;66073;47.730;9.352;2023-05-29T03:37:40;96609.22;;;12.37;56.54
77120;BME280;66073;47.730;9.352;2023-05-29T03:40:06;96604.47;;;12.34;57.07
77120;BME280;66073;47.730;9.352;2023-05-29T03:42:33;96608.25;;;12.28;57.40
77120;BME280;66073;47.730;9.352;2023-05-29T03:44:59;96611.63;;;12.15;58.25
77120;BME280;66073;47.730;9.352;2023-05-29T03:47:24;96616.41;;;12.18;58.58
77120;BME280;66073;47.730;9.352;2023-05-29T03:49:50;96611.00;;;11.99;59.36
77120;BME280;66073;47.730;9.352;2023-05-29T03:52:15;96608.22;;;11.85;59.83
77120;BME280;66073;47.730;9.352;2023-05-29T03:54:41;96620.56;;;11.81;60.15
77120;BME280;66073;47.730;9.352;2023-05-29T03:57:06;96621.00;;;11.88;59.75
77120;BME280;66073;47.730;9.352;2023-05-29T03:59:32;96615.31;;;11.71;60.56
77120;BME280;66073;47.730;9.352;2023-05-29T04:01:58;96621.19;;;11.68;60.99
77120;BME280;66073;47.730;9.352;2023-05-29T04:04:23;96621.75;;;11.65;61.39
77120;BME280;66073;47.730;9.352;2023-05-29T04:06:49;96620.69;;;11.66;61.55
77120;BME280;66073;47.730;9.352;2023-05-29T04:09:14;96624.88;;;11.77;61.25
77120;BME280;66073;47.730;9.352;2023-05-29T04:11:40;96626.31;;;11.65;61.69
77120;BME280;66073;47.730;9.352;2023-05-29T04:14:07;96628.78;;;11.56;61.83
77120;BME280;66073;47.730;9.352;2023-05-29T04:16:32;96626.06;;;11.61;61.70
77120;BME280;66073;47.730;9.352;2023-05-29T04:18:58;96628.75;;;11.61;61.68
77120;BME280;66073;47.730;9.352;2023-05-29T04:21:23;96631.31;;;11.76;60.81
77120;BME280;66073;47.730;9.352;2023-05-29T04:23:49;96641.44;;;11.79;60.48
77120;BME280;66073;47.730;9.352;2023-05-29T04:26:14;96639.94;;;11.97;60.23
77120;BME280;66073;47.730;9.352;2023-05-29T04:28:40;96641.97;;;12.05;59.73
77120;BME280;66073;47.730;9.352;2023-05-29T04:31:07;96639.69;;;11.93;60.63
77120;BME280;66073;47.730;9.352;2023-05-29T04:33:33;96643.31;;;12.03;60.58
77120;BME280;66073;47.730;9.352;2023-05-29T04:36:02;96653.88;;;12.18;59.48
77120;BME280;66073;47.730;9.352;2023-05-29T04:38:29;96644.66;;;12.29;59.33
77120;BME280;66073;47.730;9.352;2023-05-29T04:40:55;96650.25;;;12.09;60.18
77120;BME280;66073;47.730;9.352;2023-05-29T04:43:24;96653.47;;;12.06;60.54
77120;BME280;66073;47.730;9.352;2023-05-29T04:45:52;96645.28;;;12.21;59.85
77120;BME280;66073;47.730;9.352;2023-05-29T04:48:18;96654.50;;;12.33;59.51
77120;BME280;66073;47.730;9.352;2023-05-29T04:50:43;96663.38;;;12.29;59.50
77120;BME280;66073;47.730;9.352;2023-05-29T04:53:10;96663.72;;;12.46;58.98
77120;BME280;66073;47.730;9.352;2023-05-29T04:55:36;96666.25;;;12.56;58.49
77120;BME280;66073;47.730;9.352;2023-05-29T04:58:02;96667.81;;;12.62;58.73
77120;BME280;66073;47.730;9.352;2023-05-29T05:00:27;96668.31;;;12.64;58.45
77120;BME280;66073;47.730;9.352;2023-05-29T05:02:53;96673.03;;;12.72;58.42
77120;BME280;66073;47.730;9.352;2023-05-29T05:05:18;96676.50;;;12.91;57.59
77120;BME280;66073;47.730;9.352;2023-05-29T05:07:44;96671.72;;;13.12;56.73
77120;BME280;66073;47.730;9.352;2023-05-29T05:10:09;96676.72;;;13.19;56.29
77120;BME280;66073;47.730;9.352;2023-05-29T05:12:35;96668.88;;;13.41;56.27
77120;BME280;66073;47.730;9.352;2023-05-29T05:15:02;96661.41;;;13.70;55.02
77120;BME280;66073;47.730;9.352;2023-05-29T05:17:27;96665.47;;;13.68;54.80
77120;BME280;66073;47.730;9.352;2023-05-29T05:19:53;96663.22;;;13.75;55.17
77120;BME280;66073;47.730;9.352;2023-05-29T05:22:18;96658.41;;;13.90;54.77
77120;BME280;66073;47.730;9.352;2023-05-29T05:24:44;96662.09;;;14.08;54.18
77120;BME280;66073;47.730;9.352;2023-05-29T05:27:09;96665.38;;;14.32;53.79
77120;BME280;66073;47.730;9.352;2023-05-29T05:29:35;96667.91;;;14.56;52.78
77120;BME280;66073;47.730;9.352;2023-05-29T05:32:00;96670.03;;;14.13;56.24
77120;BME280;66073;47.730;9.352;2023-05-29T05:34:26;96665.59;;;14.22;54.34
77120;BME280;66073;47.730;9.352;2023-05-29T05:36:51;96667.06;;;14.28;54.67
77120;BME280;66073;47.730;9.352;2023-05-29T05:39:17;96669.97;;;14.32;55.05
77120;BME280;66073;47.730;9.352;2023-05-29T05:41:42;96667.31;;;14.46;54.33
77120;BME280;66073;47.730;9.352;2023-05-29T05:44:08;96668.06;;;14.73;53.68
77120;BME280;66073;47.730;9.352;2023-05-29T05:46:33;96670.97;;;14.77;54.00
77120;BME280;66073;47.730;9.352;2023-05-29T05:48:59;96670.25;;;14.85;53.79
77120;BME280;66073;47.730;9.352;2023-05-29T05:51:26;96673.19;;;15.11;54.22
77120;BME280;66073;47.730;9.352;2023-05-29T05:53:52;96680.50;;;14.97;57.29
77120;BME280;66073;47.730;9.352;2023-05-29T05:56:17;96686.66;;;14.97;57.75
77120;BME280;66073;47.730;9.352;2023-05-29T05:58:43;96683.56;;;15.04;57.75
77120;BME280;66073;47.730;9.352;2023-05-29T06:01:08;96688.47;;;14.88;55.52
77120;BME280;66073;47.730;9.352;2023-05-29T06:03:37;96687.13;;;15.13;54.21
77120;BME280;66073;47.730;9.352;2023-05-29T06:06:03;96682.34;;;15.10;58.40
77120;BME280;66073;47.730;9.352;2023-05-29T06:08:28;96685.56;;;14.84;58.12
77120;BME280;66073;47.730;9.352;2023-05-29T06:10:55;96693.09;;;15.10;58.80
77120;BME280;66073;47.730;9.352;2023-05-29T06:13:20;96687.44;;;15.11;58.73
77120;BME280;66073;47.730;9.352;2023-05-29T06:15:45;96685.31;;;15.22;58.44
77120;BME280;66073;47.730;9.352;2023-05-29T06:18:11;96681.91;;;15.30;58.52
77120;BME280;66073;47.730;9.352;2023-05-29T06:20:37;96689.25;;;15.52;58.25
77120;BME280;66073;47.730;9.352;2023-05-29T06:23:02;96686.59;;;15.82;56.18
77120;BME280;66073;47.730;9.352;2023-05-29T06:25:28;96682.66;;;16.11;54.99
77120;BME280;66073;47.730;9.352;2023-05-29T06:28:02;96684.72;;;15.83;55.90
77120;BME280;66073;47.730;9.352;2023-05-29T06:30:28;96681.06;;;15.87;56.98
77120;BME280;66073;47.730;9.352;2023-05-29T06:32:54;96681.41;;;15.64;58.32
77120;BME280;66073;47.730;9.352;2023-05-29T06:35:20;96682.81;;;15.61;57.23
77120;BME280;66073;47.730;9.352;2023-05-29T06:37:46;96678.44;;;15.96;57.57
77120;BME280;66073;47.730;9.352;2023-05-29T06:40:12;96687.13;;;15.93;56.96
77120;BME280;66073;47.730;9.352;2023-05-29T06:42:38;96688.31;;;15.78;55.57
77120;BME280;66073;47.730;9.352;2023-05-29T06:45:04;96692.09;;;16.00;56.00
77120;BME280;66073;47.730;9.352;2023-05-29T06:47:29;96691.06;;;16.18;54.83
77120;BME280;66073;47.730;9.352;2023-05-29T06:49:55;96689.91;;;16.41;54.11
77120;BME280;66073;47.730;9.352;2023-05-29T06:52:21;96695.50;;;16.53;53.49
77120;BME280;66073;47.730;9.352;2023-05-29T06:54:46;96694.41;;;16.54;53.06
77120;BME280;66073;47.730;9.352;2023-05-29T06:57:12;96702.13;;;16.69;52.43
77120;BME280;66073;47.730;9.352;2023-05-29T06:59:38;96703.22;;;16.68;54.50
77120;BME280;66073;47.730;9.352;2023-05-29T07:02:03;96699.47;;;16.87;53.06
77120;BME280;66073;47.730;9.352;2023-05-29T07:04:29;96709.31;;;17.00;52.80
77120;BME280;66073;47.730;9.352;2023-05-29T07:06:54;96709.84;;;17.36;49.79
77120;BME280;66073;47.730;9.352;2023-05-29T07:09:20;96711.78;;;17.44;49.84
77120;BME280;66073;47.730;9.352;2023-05-29T07:11:46;96707.47;;;17.77;48.66
77120;BME280;66073;47.730;9.352;2023-05-29T07:14:11;96699.06;;;17.88;47.82
77120;BME280;66073;47.730;9.352;2023-05-29T07:16:38;96700.25;;;18.16;48.28
77120;BME280;66073;47.730;9.352;2023-05-29T07:19:03;96697.03;;;18.31;46.35
77120;BME280;66073;47.730;9.352;2023-05-29T07:21:29;96705.66;;;18.16;46.75
77120;BME280;66073;47.730;9.352;2023-05-29T07:23:56;96699.94;;;18.26;45.72
77120;BME280;66073;47.730;9.352;2023-05-29T07:26:22;96705.94;;;18.40;46.35
77120;BME280;66073;47.730;9.352;2023-05-29T07:28:48;96699.19;;;18.63;44.24
77120;BME280;66073;47.730;9.352;2023-05-29T07:31:14;96704.94;;;18.53;45.27
77120;BME280;66073;47.730;9.352;2023-05-29T07:33:40;96704.44;;;18.60;46.82
77120;BME280;66073;47.730;9.352;2023-05-29T07:36:06;96699.47;;;19.00;44.75
77120;BME280;66073;47.730;9.352;2023-05-29T07:38:32;96698.22;;;18.68;44.80
77120;BME280;66073;47.730;9.352;2023-05-29T07:40:58;96700.94;;;18.59;44.71
77120;BME280;66073;47.730;9.352;2023-05-29T07:43:23;96702.09;;;18.58;45.23
77120;BME280;66073;47.730;9.352;2023-05-29T07:45:49;96696.34;;;18.89;44.29
77120;BME280;66073;47.730;9.352;2023-05-29T07:48:14;96707.75;;;19.24;43.62
77120;BME280;66073;47.730;9.352;2023-05-29T07:50:40;96708.69;;;19.28;44.29
77120;BME280;66073;47.730;9.352;2023-05-29T07:53:06;96701.31;;;19.78;42.12
77120;BME280;66073;47.730;9.352;2023-05-29T07:55:32;96704.16;;;19.82;44.36
77120;BME280;66073;47.730;9.352;2023-05-29T07:57:57;96702.69;;;19.85;43.69
77120;BME280;66073;47.730;9.352;2023-05-29T08:00:23;96701.59;;;19.98;43.48
77120;BME280;66073;47.730;9.352;2023-05-29T08:02:49;96702.69;;;20.17;42.78
77120;BME280;66073;47.730;9.352;2023-05-29T08:05:15;96698.03;;;20.39;42.51
77120;BME280;66073;47.730;9.352;2023-05-29T08:07:40;96698.13;;;20.42;42.07
77120;BME280;66073;47.730;9.352;2023-05-29T08:10:07;96702.59;;;20.26;42.49
77120;BME280;66073;47.730;9.352;2023-05-29T08:12:33;96696.78;;;20.48;43.74
77120;BME280;66073;47.730;9.352;2023-05-29T08:15:00;96698.41;;;20.61;41.58
77120;BME280;66073;47.730;9.352;2023-05-29T08:17:25;96701.06;;;20.37;41.04
77120;BME280;66073;47.730;9.352;2023-05-29T08:19:51;96691.75;;;20.83;42.36
77120;BME280;66073;47.730;9.352;2023-05-29T08:22:16;96697.25;;;20.99;42.16
77120;BME280;66073;47.730;9.352;2023-05-29T08:24:42;96698.72;;;20.96;42.16
77120;BME280;66073;47.730;9.352;2023-05-29T08:27:07;96695.22;;;20.71;39.85
77120;BME280;66073;47.730;9.352;2023-05-29T08:29:33;96701.34;;;21.17;39.07
77120;BME280;66073;47.730;9.352;2023-05-29T08:31:58;96687.88;;;21.33;41.09
77120;BME280;66073;47.730;9.352;2023-05-29T08:34:24;96695.16;;;21.44;40.12
77120;BME280;66073;47.730;9.352;2023-05-29T08:36:49;96701.00;;;21.58;42.06
77120;BME280;66073;47.730;9.352;2023-05-29T08:39:17;96689.72;;;21.56;40.82
77120;BME280;66073;47.730;9.352;2023-05-29T08:42:19;96698.97;;;21.67;41.38
77120;BME280;66073;47.730;9.352;2023-05-29T08:44:47;96699.97;;;22.03;40.44
77120;BME280;66073;47.730;9.352;2023-05-29T08:47:17;96701.00;;;21.70;39.63
77120;BME280;66073;47.730;9.352;2023-05-29T08:49:53;96696.44;;;21.74;40.47
77120;BME280;66073;47.730;9.352;2023-05-29T08:52:21;96705.94;;;21.81;39.93
77120;BME280;66073;47.730;9.352;2023-05-29T08:54:47;96706.50;;;21.86;39.89
77120;BME280;66073;47.730;9.352;2023-05-29T08:57:13;96698.41;;;22.02;38.86
77120;BME280;66073;47.730;9.352;2023-05-29T08:59:42;96698.94;;;22.07;38.69
77120;BME280;66073;47.730;9.352;2023-05-29T09:02:10;96705.72;;;22.13;38.95
77120;BME280;66073;47.730;9.352;2023-05-29T09:04:37;96709.13;;;22.10;40.49
77120;BME280;66073;47.730;9.352;2023-05-29T09:07:02;96702.56;;;22.27;39.46
77120;BME280;66073;47.730;9.352;2023-05-29T09:09:29;96708.50;;;22.60;38.49
77120;BME280;66073;47.730;9.352;2023-05-29T09:11:57;96705.84;;;22.48;39.64
77120;BME280;66073;47.730;9.352;2023-05-29T09:14:42;96710.25;;;21.82;38.91
77120;BME280;66073;47.730;9.352;2023-05-29T09:17:10;96701.25;;;22.37;38.30
77120;BME280;66073;47.730;9.352;2023-05-29T09:19:36;96699.84;;;22.27;39.20
77120;BME280;66073;47.730;9.352;2023-05-29T09:22:05;96709.91;;;22.54;38.51
77120;BME280;66073;47.730;9.352;2023-05-29T09:24:33;96710.56;;;22.79;36.07
77120;BME280;66073;47.730;9.352;2023-05-29T09:27:00;96704.78;;;22.37;38.04
77120;BME280;66073;47.730;9.352;2023-05-29T09:29:27;96700.75;;;22.94;37.60
77120;BME280;66073;47.730;9.352;2023-05-29T09:31:55;96704.19;;;23.22;38.90
77120;BME280;66073;47.730;9.352;2023-05-29T09:34:26;96705.19;;;22.83;36.33
77120;BME280;66073;47.730;9.352;2023-05-29T09:37:06;96690.06;;;23.01;38.41
77120;BME280;66073;47.730;9.352;2023-05-29T09:42:06;96700.59;;;23.37;38.97
77120;BME280;66073;47.730;9.352;2023-05-29T09:44:32;96698.50;;;22.96;41.54
77120;BME280;66073;47.730;9.352;2023-05-29T09:46:59;96705.47;;;23.28;40.00
77120;BME280;66073;47.730;9.352;2023-05-29T09:49:25;96708.75;;;23.18;38.47
77120;BME280;66073;47.730;9.352;2023-05-29T09:51:55;96696.09;;;23.60;37.01
77120;BME280;66073;47.730;9.352;2023-05-29T09:54:21;96709.63;;;23.57;37.08
77120;BME280;66073;47.730;9.352;2023-05-29T09:56:47;96699.97;;;23.79;37.29
77120;BME280;66073;47.730;9.352;2023-05-29T09:59:14;96715.88;;;23.77;36.39
77120;BME280;66073;47.730;9.352;2023-05-29T10:01:44;96714.31;;;23.95;35.40
77120;BME280;66073;47.730;9.352;2023-05-29T10:04:11;96711.00;;;24.05;34.91
77120;BME280;66073;47.730;9.352;2023-05-29T10:06:45;96700.97;;;23.70;33.95
77120;BME280;66073;47.730;9.352;2023-05-29T10:09:13;96695.31;;;24.17;35.68
77120;BME280;66073;47.730;9.352;2023-05-29T10:11:47;96710.28;;;23.35;35.94
77120;BME280;66073;47.730;9.352;2023-05-29T10:14:20;96706.28;;;24.21;35.65
77120;BME280;66073;47.730;9.352;2023-05-29T10:16:49;96703.31;;;24.30;32.65
77120;BME280;66073;47.730;9.352;2023-05-29T10:19:28;96703.69;;;24.74;36.05
77120;BME280;66073;47.730;9.352;2023-05-29T10:21:55;96698.81;;;25.09;34.32
77120;BME280;66073;47.730;9.352;2023-05-29T10:24:21;96707.75;;;24.38;38.19
77120;BME280;66073;47.730;9.352;2023-05-29T10:26:49;96709.59;;;24.76;35.47
77120;BME280;66073;47.730;9.352;2023-05-29T10:31:58;96700.44;;;24.87;34.94
77120;BME280;66073;47.730;9.352;2023-05-29T10:39:35;96703.03;;;25.03;34.87
77120;BME280;66073;47.730;9.352;2023-05-29T10:42:01;96691.44;;;24.41;33.74
77120;BME280;66073;47.730;9.352;2023-05-29T10:49:23;96681.50;;;24.75;34.39
77120;BME280;66073;47.730;9.352;2023-05-29T10:51:49;96689.75;;;24.79;34.01
77120;BME280;66073;47.730;9.352;2023-05-29T10:54:15;96682.75;;;24.81;32.87
77120;BME280;66073;47.730;9.352;2023-05-29T10:56:45;96688.31;;;24.85;31.81
77120;BME280;66073;47.730;9.352;2023-05-29T10:59:18;96687.31;;;24.74;33.51
77120;BME280;66073;47.730;9.352;2023-05-29T11:01:44;96698.94;;;24.90;33.62
77120;BME280;66073;47.730;9.352;2023-05-29T11:04:25;96674.00;;;23.85;32.71
77120;BME280;66073;47.730;9.352;2023-05-29T11:06:52;96673.59;;;24.47;34.38
77120;BME280;66073;47.730;9.352;2023-05-29T11:09:35;96674.91;;;24.80;32.88
77120;BME280;66073;47.730;9.352;2023-05-29T11:12:22;96679.16;;;25.26;32.81
77120;BME280;66073;47.730;9.352;2023-05-29T11:15:07;96684.94;;;24.95;30.46
77120;BME280;66073;47.730;9.352;2023-05-29T11:20:07;96669.72;;;24.71;33.77
77120;BME280;66073;47.730;9.352;2023-05-29T11:25:18;96675.16;;;25.46;32.90
77120;BME280;66073;47.730;9.352;2023-05-29T11:27:44;96669.38;;;25.22;33.17
77120;BME280;66073;47.730;9.352;2023-05-29T11:30:10;96664.97;;;25.43;31.39
77120;BME280;66073;47.730;9.352;2023-05-29T11:32:36;96667.19;;;25.34;32.82
77120;BME280;66073;47.730;9.352;2023-05-29T11:35:09;96663.47;;;24.71;32.54
77120;BME280;66073;47.730;9.352;2023-05-29T11:37:37;96667.38;;;25.48;33.19
77120;BME280;66073;47.730;9.352;2023-05-29T11:40:07;96670.78;;;26.01;32.21
77120;BME280;66073;47.730;9.352;2023-05-29T11:42:35;96667.72;;;25.17;32.25
77120;BME280;66073;47.730;9.352;2023-05-29T11:45:15;96665.00;;;25.17;33.84
77120;BME280;66073;47.730;9.352;2023-05-29T11:47:58;96664.97;;;25.43;30.95
77120;BME280;66073;47.730;9.352;2023-05-29T11:50:29;96666.03;;;26.28;29.86
77120;BME280;66073;47.730;9.352;2023-05-29T11:52:57;96663.00;;;26.40;30.31
77120;BME280;66073;47.730;9.352;2023-05-29T11:55:24;96657.84;;;26.32;29.74
77120;BME280;66073;47.730;9.352;2023-05-29T11:58:03;96662.03;;;27.10;31.09
77120;BME280;66073;47.730;9.352;2023-05-29T12:00:38;96651.06;;;27.06;29.67
77120;BME280;66073;47.730;9.352;2023-05-29T12:03:06;96666.34;;;26.63;28.35
77120;BME280;66073;47.730;9.352;2023-05-29T12:05:44;96657.63;;;25.77;29.76
77120;BME280;66073;47.730;9.352;2023-05-29T12:08:10;96653.88;;;26.70;30.90
77120;BME280;66073;47.730;9.352;2023-05-29T12:10:36;96661.38;;;26.32;31.13
77120;BME280;66073;47.730;9.352;2023-05-29T12:13:01;96635.78;;;27.05;31.47
77120;BME280;66073;47.730;9.352;2023-05-29T12:15:28;96645.41;;;27.47;28.67
77120;BME280;66073;47.730;9.352;2023-05-29T12:17:55;96651.09;;;27.89;29.79
77120;BME280;66073;47.730;9.352;2023-05-29T12:20:25;96647.69;;;28.24;25.48
77120;BME280;66073;47.730;9.352;2023-05-29T12:23:02;96655.28;;;27.62;28.21
77120;BME280;66073;47.730;9.352;2023-05-29T12:25:28;96649.38;;;26.91;29.91
77120;BME280;66073;47.730;9.352;2023-05-29T12:27:57;96661.88;;;26.45;29.06
77120;BME280;66073;47.730;9.352;2023-05-29T12:30:24;96650.63;;;27.70;28.45
77120;BME280;66073;47.730;9.352;2023-05-29T12:32:51;96647.41;;;27.46;28.62
77120;BME280;66073;47.730;9.352;2023-05-29T12:35:22;96656.88;;;26.54;29.92
77120;BME280;66073;47.730;9.352;2023-05-29T12:37:59;96658.78;;;26.46;28.76
77120;BME280;66073;47.730;9.352;2023-05-29T12:40:26;96660.75;;;26.49;28.48
77120;BME280;66073;47.730;9.352;2023-05-29T12:42:55;96659.94;;;26.45;28.98
77120;BME280;66073;47.730;9.352;2023-05-29T12:45:24;96660.56;;;26.28;26.65
77120;BME280;66073;47.730;9.352;2023-05-29T12:48:00;96653.78;;;27.68;28.98
77120;BME280;66073;47.730;9.352;2023-05-29T12:50:31;96650.94;;;27.54;28.98
77120;BME280;66073;47.730;9.352;2023-05-29T12:53:03;96649.16;;;27.97;27.07
77120;BME280;66073;47.730;9.352;2023-05-29T12:55:32;96647.47;;;27.61;26.32
77120;BME280;66073;47.730;9.352;2023-05-29T12:58:11;96646.88;;;28.13;29.35
77120;BME280;66073;47.730;9.352;2023-05-29T13:00:39;96650.06;;;28.43;26.76
77120;BME280;66073;47.730;9.352;2023-05-29T13:03:06;96653.09;;;27.96;26.07
77120;BME280;66073;47.730;9.352;2023-05-29T13:05:32;96650.00;;;28.15;26.05
77120;BME280;66073;47.730;9.352;2023-05-29T13:07:58;96661.44;;;28.28;27.04
77120;BME280;66073;47.730;9.352;2023-05-29T13:10:25;96651.69;;;28.80;27.99
77120;BME280;66073;47.730;9.352;2023-05-29T13:12:56;96640.63;;;29.29;24.07
77120;BME280;66073;47.730;9.352;2023-05-29T13:15:25;96650.50;;;28.88;24.91
77120;BME280;66073;47.730;9.352;2023-05-29T13:17:52;96651.22;;;28.14;26.37
77120;BME280;66073;47.730;9.352;2023-05-29T13:20:19;96652.94;;;26.95;26.60
77120;BME280;66073;47.730;9.352;2023-05-29T13:22:46;96643.78;;;28.36;27.43
77120;BME280;66073;47.730;9.352;2023-05-29T13:25:16;96645.81;;;28.81;24.43
77120;BME280;66073;47.730;9.352;2023-05-29T13:27:45;96651.63;;;29.29;24.78
77120;BME280;66073;47.730;9.352;2023-05-29T13:30:12;96656.28;;;28.12;25.46
77120;BME280;66073;47.730;9.352;2023-05-29T13:32:38;96644.63;;;29.00;24.70
77120;BME280;66073;47.730;9.352;2023-05-29T13:35:03;96642.19;;;28.17;25.04